createdAt,value
2022-10-16T00:01:36.480Z,17.10
2022-10-16T00:04:39.279Z,17.10
2022-10-16T00:07:43.403Z,17.00
2022-10-16T00:10:46.166Z,17.00
2022-10-16T00:13:51.204Z,16.90
2022-10-16T00:16:54.332Z,16.90
2022-10-16T00:19:57.670Z,16.90
2022-10-16T00:23:01.801Z,16.90
2022-10-16T00:26:07.180Z,16.90
2022-10-16T00:29:10.460Z,16.90
2022-10-16T00:32:13.313Z,16.80
2022-10-16T00:35:16.274Z,16.80
2022-10-16T00:38:20.439Z,16.80
2022-10-16T00:41:25.325Z,16.80
2022-10-16T00:44:46.808Z,16.80
2022-10-16T00:47:52.461Z,16.70
2022-10-16T00:50:55.580Z,16.70
2022-10-16T02:14:42.572Z,16.60
2022-10-16T02:17:45.730Z,16.60
2022-10-16T02:20:53.980Z,16.60
2022-10-16T02:24:02.825Z,16.60
2022-10-16T02:27:10.654Z,16.60
2022-10-16T02:30:19.468Z,16.50
2022-10-16T02:33:24.455Z,16.60
2022-10-16T02:36:28.051Z,16.50
2022-10-16T02:39:31.995Z,16.50
2022-10-16T02:42:36.595Z,16.50
2022-10-16T02:45:41.201Z,16.50
2022-10-16T02:48:44.147Z,16.50
2022-10-16T02:51:47.180Z,16.40
2022-10-16T02:54:49.968Z,16.40
2022-10-16T02:57:53.372Z,16.40
2022-10-16T03:00:57.798Z,16.30
2022-10-16T03:04:00.622Z,16.30
2022-10-16T03:07:03.807Z,16.30
2022-10-16T03:10:07.384Z,16.30
2022-10-16T03:13:10.174Z,16.30
2022-10-16T03:16:14.337Z,16.30
2022-10-16T03:19:18.351Z,16.30
2022-10-16T03:22:21.201Z,16.30
2022-10-16T03:25:24.072Z,16.40
2022-10-16T03:28:27.199Z,16.30
2022-10-16T03:31:31.618Z,16.30
2022-10-16T03:34:34.677Z,16.30
2022-10-16T03:37:37.453Z,16.30
2022-10-16T03:40:40.197Z,16.30
2022-10-16T03:43:42.973Z,16.40
2022-10-16T03:46:47.345Z,16.40
2022-10-16T03:49:50.268Z,16.40
2022-10-16T03:52:53.045Z,16.40
2022-10-16T03:55:56.049Z,16.40
2022-10-16T03:58:58.817Z,16.30
2022-10-16T04:02:02.917Z,16.30
2022-10-16T04:05:06.413Z,16.30
2022-10-16T04:08:09.357Z,16.40
2022-10-16T04:11:12.219Z,16.40
2022-10-16T04:14:15.120Z,16.50
2022-10-16T04:17:19.655Z,16.50
2022-10-16T04:20:23.077Z,16.50
2022-10-16T04:23:25.842Z,16.50
2022-10-16T04:26:28.668Z,16.50
2022-10-16T04:29:31.434Z,16.50
2022-10-16T04:32:35.552Z,16.50
2022-10-16T04:35:38.344Z,16.50
2022-10-16T04:38:41.434Z,16.50
2022-10-16T04:41:44.222Z,16.50
2022-10-16T04:44:47.063Z,16.50
2022-10-16T04:47:51.198Z,16.40
2022-10-16T04:50:55.139Z,16.40
2022-10-16T04:53:58.239Z,16.40
2022-10-16T04:57:00.996Z,16.40
2022-10-16T05:00:05.103Z,16.50
2022-10-16T05:03:09.850Z,16.50
2022-10-16T05:06:13.121Z,16.50
2022-10-16T05:09:15.910Z,16.50
2022-10-16T05:12:18.727Z,16.50
2022-10-16T05:15:21.655Z,16.50
2022-10-16T05:18:25.793Z,16.50
2022-10-16T05:21:28.542Z,16.50
2022-10-16T05:24:31.319Z,16.50
2022-10-16T05:27:34.374Z,16.50
2022-10-16T05:30:39.644Z,16.40
2022-10-16T05:33:44.961Z,16.30
2022-10-16T05:36:47.916Z,16.40
2022-10-16T05:39:50.672Z,16.40
2022-10-16T05:42:57.295Z,16.40
2022-10-16T05:46:02.315Z,16.40
2022-10-16T05:49:06.423Z,16.40
2022-10-16T05:52:09.295Z,16.40
2022-10-16T05:55:12.072Z,16.40
2022-10-16T05:58:14.871Z,16.40
2022-10-16T06:01:19.420Z,16.40
2022-10-16T06:04:23.608Z,16.30
2022-10-16T06:07:26.564Z,16.30
2022-10-16T06:10:29.932Z,16.40
2022-10-16T06:13:33.096Z,16.40
2022-10-16T06:16:37.056Z,16.40
2022-10-16T06:19:41.476Z,16.30
2022-10-16T06:22:44.271Z,16.40
2022-10-16T06:25:47.396Z,16.30
2022-10-16T06:28:50.968Z,16.30
2022-10-16T06:31:53.909Z,16.30
2022-10-16T06:34:58.022Z,16.30
2022-10-16T06:38:00.792Z,16.30
2022-10-16T06:41:03.944Z,16.30
2022-10-16T06:44:07.925Z,16.30
2022-10-16T06:47:10.663Z,16.20
2022-10-16T06:50:14.841Z,16.20
2022-10-16T06:53:17.605Z,16.20
2022-10-16T06:56:22.884Z,16.30
2022-10-16T06:59:25.694Z,16.20
2022-10-16T07:02:28.850Z,16.30
2022-10-16T07:05:33.316Z,16.20
2022-10-16T07:08:37.096Z,16.30
2022-10-16T07:11:41.682Z,16.20
2022-10-16T07:14:44.440Z,16.10
2022-10-16T07:17:47.224Z,16.20
2022-10-16T07:20:51.399Z,16.20
2022-10-16T07:23:54.235Z,16.20
2022-10-16T07:26:57.020Z,16.20
2022-10-16T07:30:02.620Z,16.30
2022-10-16T07:33:07.949Z,16.30
2022-10-16T07:36:16.250Z,16.30
2022-10-16T07:39:19.867Z,16.30
2022-10-16T07:42:22.649Z,16.30
2022-10-16T07:45:25.429Z,16.30
2022-10-16T07:48:30.152Z,16.30
2022-10-16T07:51:34.653Z,16.30
2022-10-16T07:54:37.480Z,16.40
2022-10-16T07:57:40.242Z,16.50
2022-10-16T08:00:43.069Z,16.60
2022-10-16T08:03:46.452Z,16.70
2022-10-16T08:06:50.988Z,16.90
2022-10-16T08:09:53.824Z,17.10
2022-10-16T08:12:56.971Z,17.30
2022-10-16T08:16:00.467Z,17.40
2022-10-16T08:19:03.558Z,17.40
2022-10-16T08:22:07.790Z,17.60
2022-10-16T08:25:11.047Z,17.80
2022-10-16T08:28:13.849Z,18.10
2022-10-16T08:34:25.275Z,18.60
2022-10-16T08:37:33.945Z,18.70
2022-10-16T08:40:38.643Z,18.90
2022-10-16T08:44:01.234Z,19.00
2022-10-16T08:47:12.326Z,19.20
2022-10-16T08:50:20.615Z,19.30
2022-10-16T08:53:29.539Z,19.40
2022-10-16T08:56:33.984Z,19.50
2022-10-16T08:59:36.800Z,19.60
2022-10-16T09:02:42.631Z,19.70
2022-10-16T09:06:03.770Z,19.70
2022-10-16T09:09:25.221Z,19.90
2022-10-16T09:12:34.842Z,20.10
2022-10-16T09:15:45.554Z,20.20
2022-10-16T09:18:56.648Z,20.20
2022-10-16T09:22:04.292Z,20.30
2022-10-16T09:25:14.740Z,20.40
2022-10-16T09:28:18.662Z,20.40
2022-10-16T09:31:23.310Z,20.60
2022-10-16T09:34:32.655Z,20.70
2022-10-16T09:37:35.551Z,20.80
2022-10-16T09:40:43.940Z,20.80
2022-10-16T09:43:53.972Z,20.80
2022-10-16T09:47:04.355Z,21.00
2022-10-16T09:50:23.578Z,21.10
2022-10-16T09:53:27.720Z,21.30
2022-10-16T09:56:34.298Z,21.30
2022-10-16T09:59:49.257Z,21.40
2022-10-16T10:02:52.704Z,21.60
2022-10-16T10:05:58.497Z,21.80
2022-10-16T10:09:08.773Z,21.90
2022-10-16T10:18:34.123Z,22.40
2022-10-16T10:21:40.488Z,22.60
2022-10-16T10:24:43.259Z,22.60
2022-10-16T10:28:06.003Z,22.80
2022-10-16T10:31:14.772Z,23.10
2022-10-16T10:34:36.103Z,23.10
2022-10-16T10:38:04.468Z,23.20
2022-10-16T10:41:31.287Z,23.20
2022-10-16T10:44:59.360Z,23.50
2022-10-16T10:48:19.291Z,23.80
2022-10-16T10:51:29.831Z,23.90
2022-10-16T10:54:40.091Z,24.00
2022-10-16T10:58:00.509Z,24.00
2022-10-16T11:01:10.393Z,24.10
2022-10-16T11:04:40.970Z,24.30
2022-10-16T11:07:50.574Z,24.50
2022-10-16T11:10:57.598Z,24.70
2022-10-16T11:14:05.423Z,24.70
2022-10-16T11:17:13.853Z,25.10
2022-10-16T11:20:21.453Z,25.30
2022-10-16T11:23:29.987Z,25.60
2022-10-16T11:26:36.770Z,25.70
2022-10-16T11:29:48.741Z,25.70
2022-10-16T11:33:03.662Z,25.90
2022-10-16T11:36:15.037Z,26.10
2022-10-16T11:39:22.674Z,26.30
2022-10-16T11:42:35.198Z,26.40
2022-10-16T11:45:43.596Z,26.50
2022-10-16T11:48:51.513Z,26.70
2022-10-16T11:52:02.805Z,26.70
2022-10-16T11:55:16.078Z,26.50
2022-10-16T11:58:27.609Z,26.50
2022-10-16T12:01:35.320Z,26.70
2022-10-16T12:04:46.549Z,26.70
2022-10-16T12:07:57.901Z,26.70
2022-10-16T12:11:10.072Z,26.90
2022-10-16T12:14:42.855Z,27.10
2022-10-16T12:17:55.814Z,27.10
2022-10-16T12:21:06.691Z,27.30
2022-10-16T12:24:26.411Z,27.40
2022-10-16T12:27:32.057Z,27.50
2022-10-16T12:30:37.231Z,27.50
2022-10-16T12:33:43.726Z,27.70
2022-10-16T12:36:48.004Z,27.70
2022-10-16T12:39:51.492Z,27.60
2022-10-16T12:42:54.277Z,27.80
2022-10-16T12:46:06.444Z,28.00
2022-10-16T12:49:25.351Z,28.20
2022-10-16T12:52:37.793Z,28.30
2022-10-16T12:55:52.707Z,28.40
2022-10-16T12:59:05.355Z,28.60
2022-10-16T13:02:36.590Z,28.70
2022-10-16T13:05:53.287Z,28.80
2022-10-16T13:09:17.684Z,28.90
2022-10-16T13:12:42.995Z,29.10
2022-10-16T13:16:03.596Z,29.20
2022-10-16T13:19:20.588Z,29.40
2022-10-16T13:22:30.499Z,29.50
2022-10-16T13:25:45.278Z,29.60
2022-10-16T13:28:48.339Z,29.80
2022-10-16T13:31:51.980Z,29.80
2022-10-16T13:34:55.149Z,30.00
2022-10-16T13:38:14.480Z,30.10
2022-10-16T13:41:21.139Z,30.30
2022-10-16T13:44:23.942Z,30.40
2022-10-16T13:47:28.773Z,30.40
2022-10-16T13:50:31.883Z,30.50
2022-10-16T13:53:36.559Z,30.50
2022-10-16T13:56:41.969Z,30.40
2022-10-16T13:59:45.315Z,30.30
2022-10-16T14:02:55.122Z,30.10
2022-10-16T14:06:00.540Z,29.90
2022-10-16T14:09:08.479Z,29.70
2022-10-16T14:12:14.216Z,29.70
2022-10-16T14:15:20.304Z,29.50
2022-10-16T14:18:26.759Z,29.40
2022-10-16T14:21:30.439Z,29.30
2022-10-16T14:24:35.366Z,29.20
2022-10-16T14:27:39.483Z,29.10
2022-10-16T14:30:52.237Z,29.10
2022-10-16T14:33:55.169Z,29.10
2022-10-16T14:36:58.469Z,29.00
2022-10-16T14:40:03.901Z,29.10
2022-10-16T14:43:08.139Z,29.10
2022-10-16T14:46:15.629Z,29.10
2022-10-16T14:49:21.251Z,29.00
2022-10-16T14:52:24.071Z,28.90
2022-10-16T14:55:27.522Z,28.80
2022-10-16T14:58:32.055Z,28.80
2022-10-16T15:01:34.835Z,28.60
2022-10-16T15:04:37.813Z,28.40
2022-10-16T15:07:40.603Z,28.30
2022-10-16T15:10:45.390Z,28.10
2022-10-16T15:13:49.582Z,28.00
2022-10-16T15:16:52.352Z,27.80
2022-10-16T15:19:55.148Z,27.70
2022-10-16T15:22:58.306Z,27.40
2022-10-16T15:26:01.470Z,27.30
2022-10-16T15:29:05.702Z,27.20
2022-10-16T15:32:08.877Z,27.00
2022-10-16T15:35:12.119Z,26.80
2022-10-16T15:38:15.412Z,26.70
2022-10-16T15:41:18.503Z,26.60
2022-10-16T15:44:23.934Z,26.50
2022-10-16T15:47:26.733Z,26.40
2022-10-16T15:50:29.667Z,26.20
2022-10-16T15:53:32.539Z,26.00
2022-10-16T15:56:37.712Z,25.90
2022-10-16T15:59:41.941Z,25.80
2022-10-16T16:02:45.730Z,25.70
2022-10-16T16:05:48.836Z,25.60
2022-10-16T16:08:51.793Z,25.40
2022-10-16T16:11:54.803Z,25.30
2022-10-16T16:15:00.802Z,25.20
2022-10-16T16:21:14.875Z,25.00
2022-10-16T16:24:18.286Z,24.80
2022-10-16T16:27:21.574Z,24.70
2022-10-16T16:30:28.151Z,24.70
2022-10-16T16:33:32.276Z,24.50
2022-10-16T16:36:35.743Z,24.40
2022-10-16T16:39:38.600Z,24.30
2022-10-16T16:42:41.455Z,24.20
2022-10-16T16:45:45.643Z,24.10
2022-10-16T16:48:50.861Z,24.00
2022-10-16T16:51:55.140Z,23.90
2022-10-16T16:54:57.983Z,23.80
2022-10-16T16:58:01.053Z,23.70
2022-10-16T17:01:21.743Z,23.50
2022-10-16T17:04:24.700Z,23.40
2022-10-16T17:07:28.537Z,23.40
2022-10-16T17:10:31.629Z,23.30
2022-10-16T17:13:38.296Z,23.30
2022-10-16T17:16:44.639Z,23.10
2022-10-16T17:19:47.426Z,23.10
2022-10-16T17:22:50.179Z,23.00
2022-10-16T17:25:53.551Z,22.90
2022-10-16T17:28:58.232Z,22.80
2022-10-16T17:32:02.928Z,22.60
2022-10-16T17:35:06.851Z,22.50
2022-10-16T17:38:10.536Z,22.50
2022-10-16T17:41:14.345Z,22.40
2022-10-16T17:44:20.780Z,22.40
2022-10-16T17:47:24.922Z,22.30
2022-10-16T17:50:27.892Z,22.30
2022-10-16T17:53:30.685Z,22.30
2022-10-16T17:56:33.915Z,22.20
2022-10-16T17:59:36.703Z,22.20
2022-10-16T18:02:42.444Z,22.10
2022-10-16T18:05:45.375Z,22.00
2022-10-16T18:08:48.392Z,22.00
2022-10-16T18:11:59.445Z,21.90
2022-10-16T18:15:02.684Z,21.80
2022-10-16T18:18:06.971Z,21.80
2022-10-16T18:21:12.818Z,21.80
2022-10-16T18:24:16.176Z,21.70
2022-10-16T18:27:20.549Z,21.60
2022-10-16T18:30:23.784Z,21.60
2022-10-16T18:33:30.719Z,21.50
2022-10-16T18:36:35.619Z,21.40
2022-10-16T18:39:38.408Z,21.40
2022-10-16T18:42:41.395Z,21.40
2022-10-16T18:45:44.268Z,21.30
2022-10-16T18:48:49.446Z,21.20
2022-10-16T18:51:56.592Z,21.20
2022-10-16T18:54:59.350Z,21.10
2022-10-16T18:58:02.485Z,21.10
2022-10-16T19:01:06.585Z,21.10
2022-10-16T19:04:12.815Z,21.00
2022-10-16T19:07:16.347Z,21.00
2022-10-16T19:10:19.782Z,21.00
2022-10-16T19:13:23.092Z,20.90
2022-10-16T19:16:27.573Z,20.80
2022-10-16T19:19:32.219Z,20.80
2022-10-16T19:22:52.336Z,20.70
2022-10-16T19:25:55.446Z,20.60
2022-10-16T19:28:59.680Z,20.60
2022-10-16T19:32:06.560Z,20.50
2022-10-16T19:35:11.847Z,20.40
2022-10-16T19:38:14.837Z,20.30
2022-10-16T19:41:19.248Z,20.30
2022-10-16T19:44:22.111Z,20.20
2022-10-16T19:47:25.429Z,20.20
2022-10-16T19:50:29.621Z,20.20
2022-10-16T19:53:33.149Z,20.10
2022-10-16T19:56:37.372Z,19.70
2022-10-16T19:59:43.365Z,19.50
2022-10-16T20:02:48.398Z,19.20
2022-10-16T20:05:53.985Z,19.10
2022-10-16T20:08:58.105Z,18.90
2022-10-16T20:12:00.905Z,18.80
2022-10-16T20:15:04.938Z,18.80
2022-10-16T20:18:07.744Z,18.80
2022-10-16T20:21:13.190Z,18.70
2022-10-16T20:24:15.968Z,18.60
2022-10-16T20:27:18.857Z,18.60
2022-10-16T20:30:21.777Z,18.50
2022-10-16T20:33:24.549Z,18.50
2022-10-16T20:36:30.532Z,18.40
2022-10-16T20:39:33.365Z,18.40
2022-10-16T20:42:36.161Z,18.30
2022-10-16T20:45:38.934Z,18.30
2022-10-16T20:48:44.527Z,18.30
2022-10-16T20:51:49.924Z,18.20
2022-10-16T20:54:53.073Z,18.20
2022-10-16T20:57:56.265Z,18.30
2022-10-16T21:01:06.186Z,18.20
2022-10-16T21:04:10.008Z,18.10
2022-10-16T21:07:14.172Z,18.00
2022-10-16T21:10:17.075Z,18.00
2022-10-16T21:13:19.868Z,17.90
2022-10-16T21:16:23.305Z,17.90
2022-10-16T21:19:26.300Z,17.90
2022-10-16T21:22:32.209Z,17.90
2022-10-16T21:25:34.990Z,17.80
2022-10-16T21:28:37.777Z,17.80
2022-10-16T21:31:41.235Z,17.80
2022-10-16T21:34:44.044Z,17.70
2022-10-16T21:37:50.861Z,17.70
2022-10-16T21:40:53.701Z,17.70
2022-10-16T21:43:57.621Z,17.60
2022-10-16T21:47:00.370Z,17.60
2022-10-16T21:50:03.184Z,17.50
2022-10-16T21:53:07.275Z,17.50
2022-10-16T21:56:15.292Z,17.50
2022-10-16T21:59:18.124Z,17.40
2022-10-16T22:02:20.876Z,17.30
2022-10-16T22:05:23.656Z,17.30
2022-10-16T22:08:27.784Z,17.40
2022-10-16T22:11:36.486Z,17.40
2022-10-16T22:14:41.026Z,17.30
2022-10-16T22:17:43.800Z,17.20
2022-10-16T22:20:47.234Z,17.20
2022-10-16T22:23:51.536Z,17.20
2022-10-16T22:26:54.355Z,17.20
2022-10-16T22:29:57.213Z,17.20
2022-10-16T22:32:59.973Z,17.10
2022-10-16T22:36:03.594Z,17.10
2022-10-16T22:39:07.780Z,17.10
2022-10-16T22:42:10.544Z,17.00
2022-10-16T22:45:13.473Z,17.00
2022-10-16T22:48:16.267Z,17.00
2022-10-16T22:51:19.293Z,16.90
2022-10-16T22:54:23.411Z,16.80
2022-10-16T22:57:26.238Z,16.80
2022-10-16T23:00:29.049Z,16.80
2022-10-16T23:03:31.792Z,17.10
2022-10-16T23:06:34.985Z,17.40
2022-10-16T23:09:39.263Z,17.60
2022-10-16T23:12:42.122Z,17.70
2022-10-16T23:15:45.791Z,17.70
2022-10-16T23:18:50.177Z,17.70
2022-10-16T23:21:52.957Z,17.70
2022-10-16T23:24:57.105Z,17.60
2022-10-16T23:27:59.872Z,17.60
2022-10-16T23:31:04.651Z,17.60
2022-10-16T23:34:07.520Z,17.60
2022-10-16T23:37:10.348Z,17.60
2022-10-16T23:40:14.766Z,17.50
2022-10-16T23:43:17.604Z,17.50
2022-10-16T23:46:20.661Z,17.40
2022-10-16T23:49:23.716Z,17.40
2022-10-16T23:52:26.596Z,17.40
2022-10-16T23:58:38.476Z,17.30
